createdAt,value
2018-08-12T09:48:56.238Z,26.90
2018-08-12T09:51:25.184Z,27.20
2018-08-12T09:53:54.093Z,27.10
2018-08-12T09:56:22.943Z,27.10
2018-08-12T09:58:51.883Z,27.10
2018-08-12T10:01:20.739Z,27.10
2018-08-12T10:03:49.600Z,27.10
2018-08-12T10:06:18.446Z,27.10
2018-08-12T10:08:47.279Z,27.10
2018-08-12T10:11:16.230Z,27.00
2018-08-12T10:13:45.093Z,27.00
2018-08-12T10:16:20.689Z,26.90
2018-08-12T10:18:49.582Z,26.90
2018-08-12T10:21:18.560Z,26.90
2018-08-12T10:23:47.418Z,26.80
2018-08-12T10:26:16.679Z,26.80
2018-08-12T10:28:45.713Z,26.80
2018-08-12T10:31:14.675Z,26.70
2018-08-12T10:33:43.599Z,26.70
2018-08-12T10:36:12.485Z,26.60
2018-08-12T10:38:41.308Z,26.60
2018-08-12T10:41:10.179Z,26.60
2018-08-12T10:43:39.062Z,26.60
2018-08-12T10:46:07.967Z,26.60
2018-08-12T10:48:36.835Z,26.70
2018-08-12T10:51:05.946Z,26.80
2018-08-12T10:53:34.825Z,26.80
2018-08-12T10:56:03.766Z,26.90
2018-08-12T10:58:32.746Z,26.90
2018-08-12T11:01:01.686Z,27.00
2018-08-12T11:03:30.741Z,27.10
2018-08-12T11:05:59.816Z,27.10
2018-08-12T11:08:28.682Z,27.10
2018-08-12T11:10:57.661Z,27.10
2018-08-12T11:13:26.566Z,27.10
2018-08-12T11:15:55.443Z,27.00
2018-08-12T11:18:24.346Z,27.00
2018-08-12T11:20:53.221Z,27.00
2018-08-12T11:23:22.588Z,26.90
2018-08-12T11:25:52.045Z,27.00
2018-08-12T11:28:20.991Z,27.00
2018-08-12T11:30:49.987Z,27.00
2018-08-12T11:33:18.941Z,27.00
2018-08-12T11:35:47.825Z,27.10
2018-08-12T11:38:16.798Z,27.20
2018-08-12T11:40:45.700Z,27.20
2018-08-12T11:43:14.564Z,27.20
2018-08-12T11:45:43.455Z,27.30
2018-08-12T11:48:12.296Z,27.30
2018-08-12T11:50:41.256Z,27.30
2018-08-12T11:53:11.031Z,27.40
2018-08-12T11:55:39.980Z,27.50
2018-08-12T11:58:08.849Z,27.60
2018-08-12T12:03:06.432Z,27.70
2018-08-12T12:05:35.533Z,27.70
2018-08-12T12:08:04.541Z,27.80
2018-08-12T12:10:33.419Z,27.90
2018-08-12T12:13:02.350Z,27.90
2018-08-12T12:15:31.236Z,27.90
2018-08-12T12:20:30.239Z,28.00
2018-08-12T12:22:59.130Z,28.10
2018-08-12T12:25:28.010Z,28.10
2018-08-12T12:27:56.956Z,28.10
2018-08-12T12:30:25.880Z,28.20
2018-08-12T12:32:54.907Z,28.20
2018-08-12T12:35:23.788Z,28.30
2018-08-12T12:37:52.691Z,28.40
2018-08-12T12:40:21.617Z,28.50
2018-08-12T12:42:50.627Z,28.60
2018-08-12T12:47:47.978Z,28.80
2018-08-12T12:50:19.759Z,28.90
2018-08-12T12:52:49.524Z,28.90
2018-08-12T12:55:19.304Z,28.90
2018-08-12T12:57:48.334Z,28.90
2018-08-12T13:00:18.765Z,28.90
2018-08-12T13:02:48.000Z,29.00
2018-08-12T13:05:18.185Z,29.10
2018-08-12T13:07:48.132Z,29.10
2018-08-12T13:10:17.892Z,29.10
2018-08-12T13:12:46.944Z,29.20
2018-08-12T13:15:16.900Z,29.20
2018-08-12T13:17:45.874Z,29.30
2018-08-12T13:20:17.128Z,29.40
2018-08-12T13:22:47.038Z,29.70
2018-08-12T13:25:17.586Z,30.00
2018-08-12T13:27:46.648Z,30.40
2018-08-12T13:30:16.684Z,30.90
2018-08-12T13:32:46.508Z,32.10
2018-08-12T13:35:15.434Z,32.60
2018-08-12T13:37:44.437Z,33.40
2018-08-12T13:40:14.747Z,34.30
2018-08-12T13:42:44.296Z,34.90
2018-08-12T13:45:13.874Z,35.20
2018-08-12T13:47:43.952Z,35.70
2018-08-12T13:50:16.941Z,35.70
2018-08-12T13:52:46.038Z,36.00
2018-08-12T13:55:15.012Z,36.00
2018-08-12T13:57:44.110Z,35.90
2018-08-12T14:00:15.464Z,36.10
2018-08-12T14:02:44.495Z,36.30
2018-08-12T14:05:15.062Z,36.10
2018-08-12T14:07:44.010Z,36.30
2018-08-12T14:10:12.946Z,36.20
2018-08-12T14:12:41.933Z,36.20
2018-08-12T14:15:13.436Z,36.10
2018-08-12T14:17:44.067Z,35.90
2018-08-12T14:20:14.703Z,35.60
2018-08-12T14:22:43.669Z,35.40
2018-08-12T14:25:12.821Z,35.00
2018-08-12T14:27:42.777Z,34.70
2018-08-12T14:30:15.229Z,34.70
2018-08-12T14:35:13.448Z,34.50
2018-08-12T14:37:42.566Z,34.60
2018-08-12T14:40:12.395Z,34.70
2018-08-12T14:42:41.373Z,34.80
2018-08-12T14:45:11.880Z,34.80
2018-08-12T14:47:41.129Z,34.70
2018-08-12T14:50:12.744Z,34.50
2018-08-12T14:52:42.044Z,34.50
2018-08-12T14:55:11.720Z,34.40
2018-08-12T14:57:41.116Z,34.50
2018-08-12T15:00:13.197Z,34.60
2018-08-12T15:02:42.037Z,34.60
2018-08-12T15:05:10.905Z,34.70
2018-08-12T15:07:39.786Z,34.80
2018-08-12T15:10:09.964Z,34.80
2018-08-12T15:12:38.921Z,34.80
2018-08-12T15:15:09.665Z,34.60
2018-08-12T15:17:39.296Z,34.90
2018-08-12T15:20:08.348Z,35.10
2018-08-12T15:22:37.308Z,35.00
2018-08-12T15:25:08.007Z,35.30
2018-08-12T15:27:37.337Z,35.50
2018-08-12T15:30:07.388Z,35.50
2018-08-12T15:32:36.401Z,35.60
2018-08-12T15:35:05.744Z,35.80
2018-08-12T15:37:34.854Z,35.80
2018-08-12T15:40:04.001Z,36.70
2018-08-12T15:42:32.868Z,36.90
2018-08-12T15:59:52.928Z,42.10
2018-08-12T16:32:04.000Z,40.40
2018-08-12T16:34:32.837Z,38.90
2018-08-12T17:56:15.218Z,32.20
2018-08-12T17:58:44.134Z,31.90
2018-08-12T18:01:13.043Z,31.20
2018-08-12T18:03:41.934Z,30.90
2018-08-12T20:47:05.316Z,22.80
2018-08-12T20:49:34.215Z,22.60
2018-08-12T20:52:03.192Z,22.60
2018-08-12T20:54:31.988Z,22.50
2018-08-12T20:57:00.845Z,22.30
2018-08-12T20:59:29.734Z,22.20
2018-08-12T21:01:58.594Z,22.40
2018-08-12T21:04:27.433Z,22.10
2018-08-12T21:06:56.344Z,21.90
2018-08-12T21:09:25.258Z,22.00
2018-08-12T21:11:54.197Z,22.10
2018-08-12T21:14:23.040Z,22.20
2018-08-12T21:16:51.960Z,21.80
2018-08-12T21:19:20.800Z,21.90
2018-08-12T21:21:49.701Z,22.00
2018-08-12T21:24:18.527Z,21.80
2018-08-12T21:26:47.370Z,21.70
2018-08-12T21:29:16.248Z,21.60
2018-08-12T21:31:45.139Z,21.50
2018-08-12T21:34:14.071Z,21.30
2018-08-12T21:36:42.921Z,21.40
2018-08-12T21:39:13.467Z,21.40
2018-08-12T21:41:42.744Z,21.00
2018-08-12T21:44:11.630Z,20.80
2018-08-12T21:46:40.499Z,20.70
2018-08-12T21:49:09.332Z,20.70
2018-08-12T21:51:38.192Z,20.80
2018-08-12T21:54:07.153Z,20.70
2018-08-12T21:56:36.016Z,20.70
2018-08-12T21:59:04.955Z,20.70
2018-08-12T22:01:33.734Z,20.80
2018-08-12T22:04:02.663Z,20.80
2018-08-12T22:06:31.581Z,20.80
2018-08-12T22:09:00.375Z,20.80
2018-08-12T22:11:29.245Z,20.90
2018-08-12T22:13:58.110Z,20.80
2018-08-12T22:16:26.996Z,20.60
2018-08-12T22:18:55.838Z,20.50
2018-08-12T22:21:24.725Z,20.50
2018-08-12T22:23:53.636Z,20.60
2018-08-12T22:26:22.492Z,20.70
2018-08-12T22:28:51.316Z,20.60
2018-08-12T22:31:20.244Z,20.50
2018-08-12T22:33:49.054Z,20.60
2018-08-12T22:36:17.964Z,20.60
2018-08-12T22:38:46.846Z,20.60
2018-08-12T22:41:15.697Z,20.70
2018-08-12T22:43:44.560Z,20.60
2018-08-12T22:46:13.392Z,20.50
2018-08-12T22:48:42.341Z,20.60
2018-08-12T22:53:39.692Z,20.30
2018-08-12T22:56:08.512Z,20.30
2018-08-12T22:58:37.390Z,20.40
2018-08-12T23:01:07.464Z,20.40
2018-08-12T23:03:36.333Z,20.40
2018-08-12T23:06:05.213Z,20.30
2018-08-12T23:08:34.057Z,20.30
2018-08-12T23:11:02.941Z,20.20
2018-08-12T23:13:31.866Z,20.30
2018-08-12T23:16:13.804Z,20.20
2018-08-12T23:18:42.711Z,20.20
2018-08-12T23:21:12.769Z,20.20
2018-08-12T23:23:42.989Z,20.20
2018-08-12T23:26:15.890Z,20.10
2018-08-12T23:28:45.093Z,19.90
2018-08-12T23:31:14.076Z,19.80
2018-08-12T23:33:42.980Z,19.80
2018-08-12T23:36:12.126Z,19.80
2018-08-12T23:38:41.090Z,19.70
2018-08-12T23:41:10.858Z,19.80
2018-08-12T23:43:39.797Z,19.90
2018-08-12T23:46:09.267Z,19.70
2018-08-12T23:48:38.211Z,19.50
2018-08-12T23:51:07.455Z,19.40
2018-08-12T23:53:36.393Z,19.60
2018-08-12T23:56:05.435Z,19.70
2018-08-12T23:58:34.323Z,19.50
